Time,TemperatureF,DewpointF,PressureIn,WindDirection,WindDirectionDegrees,WindSpeedMPH,WindSpeedGustMPH,Humidity,HourlyPrecipIn,Conditions,Clouds,dailyrainin,SolarRadiationWatts/m^2,SoftwareType,DateUTC
2013-05-09 00:02:00,42.0,25.0,-100.00,NNE,28,4.0,6.0,51,0.00,,,0.00,1.000000,,2013-05-09 08:02:00,
2013-05-09 00:11:00,42.0,25.0,-100.00,NNE,28,4.0,6.0,51,0.00,,,0.00,1.000000,,2013-05-09 08:11:00,
2013-05-09 00:21:00,42.0,25.0,-100.00,NNE,28,4.0,6.0,51,0.00,,,0.00,1.000000,,2013-05-09 08:21:00,
2013-05-09 00:52:00,39.0,25.0,-100.00,NNE,30,4.0,8.0,57,0.00,,,0.00,0.000000,,2013-05-09 08:52:00,
2013-05-09 01:02:00,39.0,25.0,-100.00,NNE,30,4.0,8.0,57,0.00,,,0.00,0.000000,,2013-05-09 09:02:00,
2013-05-09 01:11:00,39.0,25.0,-100.00,NNE,30,4.0,8.0,57,0.00,,,0.00,0.000000,,2013-05-09 09:11:00,
2013-05-09 01:21:00,39.0,25.0,-100.00,NNE,30,4.0,8.0,57,0.00,,,0.00,0.000000,,2013-05-09 09:21:00,
2013-05-09 01:53:00,38.0,25.0,-100.00,ENE,63,2.0,6.0,59,0.00,,,0.00,0.000000,,2013-05-09 09:53:00,
2013-05-09 02:02:00,38.0,25.0,-100.00,ENE,63,2.0,6.0,59,0.00,,,0.00,0.000000,,2013-05-09 10:02:00,
2013-05-09 02:12:00,38.0,25.0,-100.00,ENE,63,2.0,6.0,59,0.00,,,0.00,0.000000,,2013-05-09 10:12:00,
2013-05-09 02:22:00,38.0,25.0,-100.00,ENE,63,2.0,6.0,59,0.00,,,0.00,0.000000,,2013-05-09 10:22:00,
2013-05-09 02:52:00,35.0,26.0,-100.00,North,351,0.0,3.0,68,0.00,,,0.00,0.000000,,2013-05-09 10:52:00,
2013-05-09 03:02:00,35.0,26.0,-100.00,North,351,0.0,3.0,68,0.00,,,0.00,0.000000,,2013-05-09 11:02:00,
2013-05-09 03:12:00,35.0,26.0,-100.00,North,351,0.0,3.0,68,0.00,,,0.00,0.000000,,2013-05-09 11:12:00,
2013-05-09 03:22:00,35.0,26.0,-100.00,North,351,0.0,3.0,68,0.00,,,0.00,0.000000,,2013-05-09 11:22:00,
2013-05-09 03:52:00,31.0,25.0,-100.00,SSW,192,0.0,4.0,77,0.00,,,0.00,0.000000,,2013-05-09 11:52:00,
2013-05-09 04:01:00,31.0,25.0,-100.00,SSW,192,0.0,4.0,77,0.00,,,0.00,0.000000,,2013-05-09 12:01:00,
2013-05-09 04:11:00,31.0,25.0,-100.00,SSW,192,0.0,4.0,77,0.00,,,0.00,0.000000,,2013-05-09 12:11:00,
2013-05-09 04:22:00,31.0,25.0,-100.00,SSW,192,0.0,4.0,77,0.00,,,0.00,0.000000,,2013-05-09 12:22:00,
2013-05-09 04:52:00,32.0,25.0,-100.00,NE,37,4.0,5.0,74,0.00,,,0.00,0.000000,,2013-05-09 12:52:00,
2013-05-09 05:01:00,32.0,25.0,-100.00,NE,37,4.0,5.0,74,0.00,,,0.00,0.000000,,2013-05-09 13:01:00,
2013-05-09 05:12:00,32.0,25.0,-100.00,NE,37,4.0,5.0,74,0.00,,,0.00,0.000000,,2013-05-09 13:12:00,
2013-05-09 05:21:00,32.0,25.0,-100.00,NE,37,4.0,5.0,74,0.00,,,0.00,0.000000,,2013-05-09 13:21:00,
2013-05-09 05:52:00,30.0,25.0,-100.00,NNE,28,0.0,4.0,80,0.00,,,0.00,0.000000,,2013-05-09 13:52:00,
2013-05-09 06:01:00,30.0,25.0,-100.00,NNE,28,0.0,4.0,80,0.00,,,0.00,0.000000,,2013-05-09 14:01:00,
2013-05-09 06:11:00,30.0,25.0,-100.00,NNE,28,0.0,4.0,80,0.00,,,0.00,0.000000,,2013-05-09 14:11:00,
2013-05-09 06:21:00,30.0,25.0,-100.00,NNE,28,0.0,4.0,80,0.00,,,0.00,0.000000,,2013-05-09 14:21:00,
2013-05-09 06:52:00,31.0,26.0,-100.00,NNE,17,0.0,2.0,80,0.00,,,0.00,9.000000,,2013-05-09 14:52:00,
2013-05-09 07:01:00,31.0,26.0,-100.00,NNE,17,0.0,2.0,80,0.00,,,0.00,9.000000,,2013-05-09 15:01:00,
2013-05-09 07:11:00,31.0,26.0,-100.00,NNE,17,0.0,2.0,80,0.00,,,0.00,9.000000,,2013-05-09 15:11:00,
2013-05-09 07:21:00,31.0,26.0,-100.00,NNE,17,0.0,2.0,80,0.00,,,0.00,9.000000,,2013-05-09 15:21:00,
2013-05-09 07:53:00,32.0,26.0,-100.00,ESE,107,0.0,2.0,78,0.00,,,0.00,31.000000,,2013-05-09 15:53:00,
2013-05-09 08:03:00,32.0,26.0,-100.00,ESE,107,0.0,2.0,78,0.00,,,0.00,31.000000,,2013-05-09 16:03:00,
2013-05-09 08:12:00,32.0,26.0,-100.00,ESE,107,0.0,2.0,78,0.00,,,0.00,31.000000,,2013-05-09 16:12:00,
2013-05-09 08:22:00,32.0,26.0,-100.00,ESE,107,0.0,2.0,78,0.00,,,0.00,31.000000,,2013-05-09 16:22:00,
2013-05-09 08:53:00,35.0,28.0,-100.00,SE,125,0.0,0.0,74,0.00,,,0.00,59.000000,,2013-05-09 16:53:00,
2013-05-09 09:02:00,35.0,28.0,-100.00,SE,125,0.0,0.0,74,0.00,,,0.00,59.000000,,2013-05-09 17:02:00,
2013-05-09 09:12:00,35.0,28.0,-100.00,SE,125,0.0,0.0,74,0.00,,,0.00,59.000000,,2013-05-09 17:12:00,
2013-05-09 09:21:00,35.0,28.0,-100.00,SE,125,0.0,0.0,74,0.00,,,0.00,59.000000,,2013-05-09 17:21:00,
2013-05-09 09:55:00,38.0,28.0,-100.00,SSE,154,1.0,3.0,68,0.00,,,0.00,73.000000,,2013-05-09 17:55:00,
2013-05-09 10:01:00,38.0,28.0,-100.00,SSE,154,1.0,3.0,68,0.00,,,0.00,73.000000,,2013-05-09 18:01:00,
2013-05-09 10:12:00,38.0,28.0,-100.00,SSE,154,1.0,3.0,68,0.00,,,0.00,73.000000,,2013-05-09 18:12:00,
2013-05-09 10:21:00,38.0,28.0,-100.00,SSE,154,1.0,3.0,68,0.00,,,0.00,73.000000,,2013-05-09 18:21:00,
2013-05-09 10:52:00,42.0,29.0,-100.00,WSW,242,1.0,4.0,60,0.00,,,0.00,172.000000,,2013-05-09 18:52:00,
2013-05-09 11:01:00,42.0,29.0,-100.00,WSW,242,1.0,4.0,60,0.00,,,0.00,172.000000,,2013-05-09 19:01:00,
2013-05-09 11:11:00,42.0,29.0,-100.00,WSW,242,1.0,4.0,60,0.00,,,0.00,172.000000,,2013-05-09 19:11:00,
2013-05-09 11:21:00,42.0,29.0,-100.00,WSW,242,1.0,4.0,60,0.00,,,0.00,172.000000,,2013-05-09 19:21:00,
2013-05-09 11:52:00,45.0,27.0,-100.00,NE,49,4.0,7.0,49,0.00,,,0.00,271.000000,,2013-05-09 19:52:00,
2013-05-09 12:01:00,45.0,27.0,-100.00,NE,49,4.0,7.0,49,0.00,,,0.00,271.000000,,2013-05-09 20:01:00,
2013-05-09 12:11:00,45.0,27.0,-100.00,NE,49,4.0,7.0,49,0.00,,,0.00,271.000000,,2013-05-09 20:11:00,
2013-05-09 12:21:00,45.0,27.0,-100.00,NE,49,4.0,7.0,49,0.00,,,0.00,271.000000,,2013-05-09 20:21:00,
2013-05-09 12:52:00,47.0,28.0,-100.00,ENE,75,2.0,7.0,47,0.00,,,0.00,256.000000,,2013-05-09 20:52:00,
2013-05-09 13:01:00,47.0,28.0,-100.00,ENE,75,2.0,7.0,47,0.00,,,0.00,256.000000,,2013-05-09 21:01:00,
2013-05-09 13:11:00,47.0,28.0,-100.00,ENE,75,2.0,7.0,47,0.00,,,0.00,256.000000,,2013-05-09 21:11:00,
2013-05-09 13:22:00,47.0,28.0,-100.00,ENE,75,2.0,7.0,47,0.00,,,0.00,256.000000,,2013-05-09 21:22:00,
2013-05-09 13:53:00,49.0,32.0,-100.00,North,2,3.0,7.0,52,0.00,,,0.00,286.000000,,2013-05-09 21:53:00,
2013-05-09 14:03:00,49.0,32.0,-100.00,North,2,3.0,7.0,52,0.00,,,0.00,286.000000,,2013-05-09 22:03:00,
2013-05-09 14:12:00,49.0,32.0,-100.00,North,2,3.0,7.0,52,0.00,,,0.00,286.000000,,2013-05-09 22:12:00,
2013-05-09 14:22:00,49.0,32.0,-100.00,North,2,3.0,7.0,52,0.00,,,0.00,286.000000,,2013-05-09 22:22:00,
2013-05-09 14:52:00,51.0,34.0,-100.00,NNE,27,3.0,10.0,51,0.00,,,0.00,351.000000,,2013-05-09 22:52:00,
2013-05-09 15:02:00,51.0,34.0,-100.00,NNE,27,3.0,10.0,51,0.00,,,0.00,351.000000,,2013-05-09 23:02:00,
2013-05-09 15:11:00,51.0,34.0,-100.00,NNE,27,3.0,10.0,51,0.00,,,0.00,351.000000,,2013-05-09 23:11:00,
2013-05-09 15:21:00,51.0,34.0,-100.00,NNE,27,3.0,10.0,51,0.00,,,0.00,351.000000,,2013-05-09 23:21:00,
2013-05-09 15:52:00,53.0,33.0,-100.00,NNE,18,4.0,9.0,47,0.00,,,0.00,348.000000,,2013-05-09 23:52:00,
2013-05-09 16:01:00,53.0,33.0,-100.00,NNE,18,4.0,9.0,47,0.00,,,0.00,348.000000,,2013-05-10 00:01:00,
2013-05-09 16:11:00,53.0,33.0,-100.00,NNE,18,4.0,9.0,47,0.00,,,0.00,348.000000,,2013-05-10 00:11:00,
2013-05-09 16:21:00,53.0,33.0,-100.00,NNE,18,4.0,9.0,47,0.00,,,0.00,348.000000,,2013-05-10 00:21:00,
2013-05-09 16:52:00,56.0,34.0,-100.00,NW,324,3.0,8.0,43,0.00,,,0.00,412.000000,,2013-05-10 00:52:00,
2013-05-09 17:01:00,56.0,34.0,-100.00,NW,324,3.0,8.0,43,0.00,,,0.00,412.000000,,2013-05-10 01:01:00,
2013-05-09 17:11:00,56.0,34.0,-100.00,NW,324,3.0,8.0,43,0.00,,,0.00,412.000000,,2013-05-10 01:11:00,
2013-05-09 17:21:00,56.0,34.0,-100.00,NW,324,3.0,8.0,43,0.00,,,0.00,412.000000,,2013-05-10 01:21:00,
2013-05-09 17:52:00,54.0,29.0,-100.00,NW,319,5.0,10.0,38,0.00,,,0.00,309.000000,,2013-05-10 01:52:00,
2013-05-09 18:01:00,54.0,29.0,-100.00,NW,319,5.0,10.0,38,0.00,,,0.00,309.000000,,2013-05-10 02:01:00,
2013-05-09 18:11:00,54.0,29.0,-100.00,NW,319,5.0,10.0,38,0.00,,,0.00,309.000000,,2013-05-10 02:11:00,
2013-05-09 18:21:00,54.0,29.0,-100.00,NW,319,5.0,10.0,38,0.00,,,0.00,309.000000,,2013-05-10 02:21:00,
2013-05-09 18:52:00,52.0,27.0,-100.00,NNW,344,5.0,10.0,38,0.00,,,0.00,230.000000,,2013-05-10 02:52:00,
2013-05-09 19:01:00,52.0,27.0,-100.00,NNW,344,5.0,10.0,38,0.00,,,0.00,230.000000,,2013-05-10 03:01:00,
2013-05-09 19:11:00,52.0,27.0,-100.00,NNW,344,5.0,10.0,38,0.00,,,0.00,230.000000,,2013-05-10 03:11:00,
2013-05-09 19:21:00,52.0,27.0,-100.00,NNW,344,5.0,10.0,38,0.00,,,0.00,230.000000,,2013-05-10 03:21:00,
2013-05-09 19:53:00,51.0,29.0,-100.00,North,1,5.0,12.0,42,0.00,,,0.00,200.000000,,2013-05-10 03:53:00,
2013-05-09 20:03:00,51.0,29.0,-100.00,North,1,5.0,12.0,42,0.00,,,0.00,200.000000,,2013-05-10 04:03:00,
2013-05-09 20:12:00,51.0,29.0,-100.00,North,1,5.0,12.0,42,0.00,,,0.00,200.000000,,2013-05-10 04:12:00,
2013-05-09 20:22:00,51.0,29.0,-100.00,North,1,5.0,12.0,42,0.00,,,0.00,200.000000,,2013-05-10 04:22:00,
2013-05-09 20:53:00,49.0,32.0,-100.00,North,359,3.0,10.0,52,0.00,,,0.00,103.000000,,2013-05-10 04:53:00,
2013-05-09 21:02:00,49.0,32.0,-100.00,North,359,3.0,10.0,52,0.00,,,0.00,103.000000,,2013-05-10 05:02:00,
2013-05-09 21:12:00,49.0,32.0,-100.00,North,359,3.0,10.0,52,0.00,,,0.00,103.000000,,2013-05-10 05:12:00,
2013-05-09 21:21:00,49.0,32.0,-100.00,North,359,3.0,10.0,52,0.00,,,0.00,103.000000,,2013-05-10 05:21:00,
2013-05-09 21:52:00,47.0,32.0,-100.00,NNE,21,4.0,8.0,56,0.00,,,0.00,34.000000,,2013-05-10 05:52:00,
2013-05-09 22:01:00,47.0,32.0,-100.00,NNE,21,4.0,8.0,56,0.00,,,0.00,34.000000,,2013-05-10 06:01:00,
2013-05-09 22:12:00,47.0,32.0,-100.00,NNE,21,4.0,8.0,56,0.00,,,0.00,34.000000,,2013-05-10 06:12:00,
2013-05-09 22:21:00,47.0,32.0,-100.00,NNE,21,4.0,8.0,56,0.00,,,0.00,34.000000,,2013-05-10 06:21:00,
2013-05-09 22:52:00,44.0,31.0,-100.00,NNE,15,3.0,6.0,61,0.00,,,0.00,12.000000,,2013-05-10 06:52:00,
2013-05-09 23:01:00,44.0,31.0,-100.00,NNE,15,3.0,6.0,61,0.00,,,0.00,12.000000,,2013-05-10 07:01:00,
2013-05-09 23:11:00,44.0,31.0,-100.00,NNE,15,3.0,6.0,61,0.00,,,0.00,12.000000,,2013-05-10 07:11:00,
2013-05-09 23:22:00,44.0,31.0,-100.00,NNE,15,3.0,6.0,61,0.00,,,0.00,12.000000,,2013-05-10 07:22:00,
2013-05-09 23:42:00,40.0,31.0,-100.00,NE,36,2.0,6.0,69,0.00,,,0.00,1.000000,,2013-05-10 07:42:00,
2013-05-09 23:52:00,40.0,31.0,-100.00,NE,36,2.0,6.0,69,0.00,,,0.00,1.000000,,2013-05-10 07:52:00,